Mopti, Mali
Current Conditions -  °F | °C
As of 10:00 PM on Tuesday 27 Jan 2015 (Local Time) from DFOO Reporting Station
Clear Clear  
Wind Chill: 79°   Ceiling: Unl
Heat Index: 79°   Visibility: 6mi
Dew Point: 37°   Wind: 7mph
Humidity: 23%   Direction: 360°N
Pressure: 29.97"   Gusts: NA
Location:  14.49°N, 4.18°W
Report Text: DFOO 272200Z 36006KT CAVOK 26/03 Q1015
Loading
Personal Weather Stations






























Interactive Weather Map New forecast layout! Learn more

10-Day Weather Forecast

Advertisements
Track Severe Weather on mobile